Aviation Digital Data Service (ADDS)

Output produced by METARs form (2059 UTC 01 December 2021)
found at http://aviationweather.gov/metar/data/
 
KLFT 012053Z 25006KT 10SM BKN042 23/13 A3010 RMK AO2 SLP193 T02330128 56025
KLFT 011728Z 0118/0218 21005KT P6SM SKC 
     FM020500 22002KT 4SM BR SKC 
     FM020700 00000KT 1/2SM FG BKN004 
     FM021400 23002KT 2SM BR FEW100 
     FM021500 22005KT P6SM SKC